createdAt,value
2018-03-03T00:01:02.154Z,99.50
2018-03-03T00:03:29.730Z,99.50
2018-03-03T00:05:58.116Z,99.30
2018-03-03T00:08:26.476Z,99.30
2018-03-03T00:10:54.089Z,99.30
2018-03-03T00:13:21.704Z,99.60
2018-03-03T00:15:49.301Z,99.60
2018-03-03T00:18:16.911Z,99.60
2018-03-03T00:20:49.686Z,99.70
2018-03-03T00:23:17.305Z,99.60
2018-03-03T00:25:44.888Z,99.90
2018-03-03T00:28:12.489Z,99.90
2018-03-03T00:30:40.080Z,99.90
2018-03-03T00:33:08.625Z,99.90
2018-03-03T00:35:36.202Z,99.90
2018-03-03T00:38:04.560Z,99.90
2018-03-03T00:40:32.168Z,99.90
2018-03-03T00:42:59.771Z,99.90
2018-03-03T00:45:27.404Z,99.90
2018-03-03T00:47:54.996Z,99.90
2018-03-03T00:50:22.602Z,99.90
2018-03-03T00:52:50.196Z,99.90
2018-03-03T00:55:17.803Z,99.90
2018-03-03T00:57:46.159Z,99.90
2018-03-03T01:00:13.769Z,99.90
2018-03-03T01:02:41.345Z,99.90
2018-03-03T01:05:08.931Z,99.90
2018-03-03T01:07:37.533Z,99.90
2018-03-03T01:10:05.123Z,99.90
2018-03-03T01:12:32.730Z,99.90
2018-03-03T01:15:00.319Z,99.90
2018-03-03T01:17:27.908Z,99.90
2018-03-03T01:19:55.529Z,99.90
2018-03-03T01:22:23.110Z,99.90
2018-03-03T01:24:51.486Z,99.90
2018-03-03T01:27:19.847Z,99.90
2018-03-03T01:29:47.444Z,99.90
2018-03-03T01:32:15.803Z,99.90
2018-03-03T01:34:43.408Z,99.90
2018-03-03T01:37:10.994Z,99.90
2018-03-03T01:39:38.614Z,99.90
2018-03-03T01:42:06.216Z,99.90
2018-03-03T01:44:33.838Z,99.90
2018-03-03T01:47:09.092Z,99.90
2018-03-03T01:49:36.662Z,99.90
2018-03-03T01:52:04.253Z,99.90
2018-03-03T01:54:31.840Z,99.90
2018-03-03T01:56:59.446Z,99.90
2018-03-03T01:59:27.048Z,99.90
2018-03-03T02:01:54.650Z,99.90
2018-03-03T02:04:22.261Z,99.90
2018-03-03T02:06:49.843Z,99.90
2018-03-03T02:09:17.470Z,99.90
2018-03-03T02:11:45.065Z,99.90
2018-03-03T02:14:13.435Z,99.90
2018-03-03T02:16:41.773Z,99.90
2018-03-03T02:19:09.359Z,99.90
2018-03-03T02:21:37.953Z,99.90
2018-03-03T02:24:06.311Z,99.90
2018-03-03T02:26:33.924Z,99.90
2018-03-03T02:29:01.544Z,99.90
2018-03-03T02:31:29.135Z,99.90
2018-03-03T02:33:56.742Z,99.90
2018-03-03T02:36:24.379Z,99.90
2018-03-03T02:38:51.951Z,99.90
2018-03-03T02:41:19.541Z,99.90
2018-03-03T02:43:47.147Z,99.90
2018-03-03T02:46:14.762Z,99.90
2018-03-03T02:48:42.330Z,99.90
2018-03-03T02:51:09.913Z,99.90
2018-03-03T02:53:37.550Z,99.90
2018-03-03T02:56:05.904Z,99.90
2018-03-03T02:58:33.476Z,99.90
2018-03-03T03:01:01.117Z,99.90
2018-03-03T03:03:28.695Z,99.90
2018-03-03T03:05:56.268Z,99.90
2018-03-03T03:08:23.869Z,99.90
2018-03-03T03:10:51.453Z,99.90
2018-03-03T03:13:19.031Z,99.90
2018-03-03T03:15:46.673Z,99.90
2018-03-03T03:18:14.241Z,99.90
2018-03-03T03:20:41.819Z,99.90
2018-03-03T03:23:10.417Z,99.90
2018-03-03T03:25:37.991Z,99.90
2018-03-03T03:28:06.331Z,99.90
2018-03-03T03:30:33.994Z,99.90
2018-03-03T03:33:01.620Z,99.90
2018-03-03T03:35:29.219Z,99.90
2018-03-03T03:37:57.910Z,99.90
2018-03-03T03:40:25.487Z,99.90
2018-03-03T03:42:53.880Z,99.90
2018-03-03T03:45:22.222Z,99.90
2018-03-03T03:47:49.820Z,99.90
2018-03-03T03:50:18.215Z,99.90
2018-03-03T03:52:45.807Z,99.90
2018-03-03T03:55:13.387Z,99.90
2018-03-03T03:57:41.013Z,99.90
2018-03-03T04:00:08.599Z,99.90
2018-03-03T04:02:36.179Z,99.90
2018-03-03T04:05:03.802Z,99.90
2018-03-03T04:07:31.379Z,99.90
2018-03-03T04:09:58.953Z,99.90
2018-03-03T04:12:26.563Z,99.90
2018-03-03T04:14:54.142Z,99.90
2018-03-03T04:17:21.754Z,99.90
2018-03-03T04:19:50.108Z,99.90
2018-03-03T04:22:17.729Z,99.90
2018-03-03T04:24:45.315Z,99.90
2018-03-03T04:27:12.910Z,99.90
2018-03-03T04:29:41.297Z,99.90
2018-03-03T04:32:09.641Z,99.90
2018-03-03T04:34:37.270Z,99.90
2018-03-03T04:37:04.857Z,99.90
2018-03-03T04:39:32.497Z,99.90
2018-03-03T04:42:00.078Z,99.90
2018-03-03T04:44:27.646Z,99.90
2018-03-03T04:46:55.269Z,99.90
2018-03-03T04:49:22.847Z,99.90
2018-03-03T04:51:50.426Z,99.90
2018-03-03T04:54:18.039Z,99.90
2018-03-03T04:56:45.653Z,99.90
2018-03-03T04:59:19.670Z,99.90
2018-03-03T05:01:50.246Z,99.90
2018-03-03T05:07:27.226Z,99.90
2018-03-03T05:09:55.557Z,99.90
2018-03-03T05:12:28.707Z,99.90
2018-03-03T05:15:11.950Z,99.90
2018-03-03T05:21:00.692Z,99.90
2018-03-03T05:23:34.839Z,99.90
2018-03-03T05:29:13.940Z,99.90
2018-03-03T05:31:57.195Z,99.90
2018-03-03T05:34:32.333Z,99.90
2018-03-03T05:37:05.467Z,99.90
2018-03-03T05:39:37.910Z,99.90
2018-03-03T05:45:14.899Z,99.90
2018-03-03T05:47:48.888Z,99.90
2018-03-03T05:50:22.938Z,99.90
2018-03-03T05:56:06.977Z,99.90
2018-03-03T05:58:41.925Z,99.90
2018-03-03T06:01:13.001Z,99.90
2018-03-03T06:03:43.219Z,99.90
2018-03-03T06:06:16.421Z,99.90
2018-03-03T06:08:46.686Z,99.90
2018-03-03T06:11:15.051Z,99.90
2018-03-03T06:13:42.634Z,99.90
2018-03-03T06:16:10.960Z,99.90
2018-03-03T06:18:38.541Z,99.90
2018-03-03T06:21:06.148Z,99.90
2018-03-03T06:23:33.729Z,99.90
2018-03-03T06:26:01.294Z,99.90
2018-03-03T06:28:28.870Z,99.90
2018-03-03T06:30:56.444Z,99.90
2018-03-03T06:33:24.025Z,99.90
2018-03-03T06:35:52.368Z,99.90
2018-03-03T06:38:19.925Z,99.90
2018-03-03T06:40:48.281Z,99.90
2018-03-03T06:43:16.923Z,99.90
2018-03-03T06:45:44.546Z,99.90
2018-03-03T06:48:12.156Z,99.90
2018-03-03T06:50:41.503Z,99.90
2018-03-03T06:53:09.098Z,99.90
2018-03-03T06:55:37.471Z,99.90
2018-03-03T06:58:05.048Z,99.90
2018-03-03T07:00:33.406Z,99.90
2018-03-03T07:03:01.062Z,99.90
2018-03-03T07:05:29.513Z,99.90
2018-03-03T07:07:57.231Z,99.90
2018-03-03T07:10:24.885Z,99.90
2018-03-03T07:12:53.239Z,99.90
2018-03-03T07:15:22.783Z,99.90
2018-03-03T07:17:51.133Z,99.90
2018-03-03T07:20:18.750Z,99.90
2018-03-03T07:22:46.318Z,99.90
2018-03-03T07:25:13.900Z,99.90
2018-03-03T07:27:41.520Z,99.90
2018-03-03T07:30:09.076Z,99.90
2018-03-03T07:32:36.643Z,99.90
2018-03-03T07:35:04.239Z,99.90
2018-03-03T07:37:31.817Z,99.90
2018-03-03T07:39:59.424Z,99.90
2018-03-03T07:42:27.023Z,99.90
2018-03-03T07:44:54.608Z,99.90
2018-03-03T07:47:22.982Z,99.90
2018-03-03T07:49:50.563Z,99.90
2018-03-03T07:52:18.130Z,99.90
2018-03-03T07:54:45.970Z,99.90
2018-03-03T07:57:14.322Z,99.90
2018-03-03T07:59:41.919Z,99.90
2018-03-03T08:02:10.283Z,99.90
2018-03-03T08:04:37.878Z,99.90
2018-03-03T08:07:05.488Z,99.90
2018-03-03T08:09:33.062Z,99.90
2018-03-03T08:12:00.666Z,99.70
2018-03-03T08:14:28.263Z,99.50
2018-03-03T08:16:55.872Z,99.20
2018-03-03T08:19:23.515Z,98.80
2018-03-03T08:21:51.861Z,99.20
2018-03-03T08:24:19.441Z,99.10
2018-03-03T08:26:47.034Z,98.30
2018-03-03T08:29:14.621Z,97.60
2018-03-03T08:31:42.210Z,97.20
2018-03-03T08:34:09.777Z,97.00
2018-03-03T08:36:37.359Z,96.90
2018-03-03T08:39:05.714Z,97.30
2018-03-03T08:41:33.278Z,97.30
2018-03-03T08:44:01.859Z,97.20
2018-03-03T08:46:29.428Z,97.00
2018-03-03T08:48:57.000Z,96.80
2018-03-03T08:51:24.678Z,96.70
2018-03-03T08:53:52.247Z,96.80
2018-03-03T08:56:19.811Z,96.70
2018-03-03T08:58:47.601Z,96.70
2018-03-03T09:01:15.197Z,96.40
2018-03-03T09:03:43.607Z,96.20
2018-03-03T09:06:11.189Z,96.20
2018-03-03T09:08:38.756Z,95.80
2018-03-03T09:11:06.379Z,95.30
2018-03-03T09:13:33.960Z,95.20
2018-03-03T09:16:01.537Z,94.70
2018-03-03T09:18:29.920Z,93.80
2018-03-03T09:20:57.497Z,93.80
2018-03-03T09:23:25.123Z,93.50
2018-03-03T09:25:53.129Z,93.30
2018-03-03T09:28:21.476Z,92.80
2018-03-03T09:30:50.116Z,92.80
2018-03-03T09:33:18.453Z,92.60
2018-03-03T09:35:46.084Z,92.60
2018-03-03T09:38:13.648Z,92.20
2018-03-03T09:40:41.223Z,91.90
2018-03-03T09:43:08.863Z,91.70
2018-03-03T09:45:36.511Z,91.80
2018-03-03T09:48:04.185Z,91.60
2018-03-03T09:50:31.879Z,91.30
2018-03-03T09:53:00.472Z,90.50
2018-03-03T09:55:28.090Z,90.30
2018-03-03T09:57:55.665Z,89.30
2018-03-03T10:00:23.234Z,88.10
2018-03-03T10:02:50.820Z,87.80
2018-03-03T10:05:18.420Z,87.20
2018-03-03T10:07:46.088Z,87.00
2018-03-03T10:10:13.672Z,86.60
2018-03-03T10:12:41.265Z,84.60
2018-03-03T10:15:08.956Z,83.60
2018-03-03T10:17:36.616Z,83.00
2018-03-03T10:20:04.229Z,82.50
2018-03-03T10:22:33.771Z,82.10
2018-03-03T10:25:02.117Z,79.80
2018-03-03T10:27:29.692Z,79.80
2018-03-03T10:29:57.293Z,79.90
2018-03-03T10:32:24.858Z,79.30
2018-03-03T10:34:52.421Z,79.30
2018-03-03T10:37:20.020Z,80.00
2018-03-03T10:39:47.620Z,76.60
2018-03-03T10:42:15.196Z,74.00
2018-03-03T10:44:42.874Z,73.10
2018-03-03T10:47:10.571Z,71.90
2018-03-03T10:49:39.032Z,71.80
2018-03-03T10:52:06.732Z,71.70
2018-03-03T10:54:35.115Z,70.90
2018-03-03T10:57:02.687Z,70.90
2018-03-03T10:59:31.053Z,65.30
2018-03-03T11:01:58.618Z,65.20
2018-03-03T11:04:26.974Z,64.20
2018-03-03T11:06:54.574Z,64.00
2018-03-03T11:09:22.152Z,64.40
2018-03-03T11:11:49.748Z,62.10
2018-03-03T11:14:17.330Z,61.30
2018-03-03T11:16:45.471Z,60.80
2018-03-03T11:19:13.842Z,60.40
2018-03-03T11:21:41.449Z,60.40
2018-03-03T11:24:09.808Z,59.90
2018-03-03T11:26:37.412Z,59.80
2018-03-03T11:29:05.007Z,59.60
2018-03-03T11:31:32.563Z,59.20
2018-03-03T11:34:00.154Z,58.70
2018-03-03T11:36:27.726Z,57.80
2018-03-03T11:38:56.084Z,58.00
2018-03-03T11:41:23.662Z,57.40
2018-03-03T11:43:52.048Z,56.40
2018-03-03T11:46:20.437Z,56.80
2018-03-03T11:48:47.973Z,56.80
2018-03-03T11:51:15.552Z,55.80
2018-03-03T11:53:43.892Z,56.30
2018-03-03T11:56:11.483Z,56.30
2018-03-03T11:58:39.821Z,56.00
2018-03-03T12:01:07.397Z,55.90
2018-03-03T12:03:35.006Z,55.20
2018-03-03T12:06:02.596Z,55.30
2018-03-03T12:08:30.197Z,54.80
2018-03-03T12:10:57.761Z,54.70
2018-03-03T12:13:26.107Z,53.90
2018-03-03T12:15:53.696Z,53.90
2018-03-03T12:18:22.036Z,53.50
2018-03-03T12:20:50.374Z,53.10
2018-03-03T12:23:17.946Z,53.10
2018-03-03T12:25:45.544Z,52.60
2018-03-03T12:28:13.132Z,52.60
2018-03-03T12:30:41.494Z,52.50
2018-03-03T12:33:09.093Z,52.40
2018-03-03T12:35:36.713Z,52.40
2018-03-03T12:38:04.364Z,52.60
2018-03-03T12:40:31.966Z,52.10
2018-03-03T12:43:00.326Z,52.10
2018-03-03T12:45:27.920Z,52.60
2018-03-03T12:47:55.507Z,51.80
2018-03-03T12:50:23.111Z,51.10
2018-03-03T12:52:51.471Z,50.50
2018-03-03T12:55:19.075Z,50.40
2018-03-03T12:57:46.665Z,50.20
2018-03-03T13:00:14.246Z,49.90
2018-03-03T13:02:41.858Z,49.80
2018-03-03T13:05:09.451Z,50.50
2018-03-03T13:07:37.019Z,50.80
2018-03-03T13:10:04.599Z,50.20
2018-03-03T13:12:32.207Z,49.80
2018-03-03T13:14:59.811Z,49.70
2018-03-03T13:17:27.396Z,49.80
2018-03-03T13:19:55.731Z,49.40
2018-03-03T13:22:23.316Z,49.30
2018-03-03T13:24:50.907Z,49.60
2018-03-03T13:27:18.531Z,49.50
2018-03-03T13:29:46.099Z,49.30
2018-03-03T13:32:13.710Z,48.50
2018-03-03T13:34:41.269Z,48.70
2018-03-03T13:37:08.836Z,48.50
2018-03-03T13:39:36.428Z,48.90
2018-03-03T13:42:03.991Z,49.00
2018-03-03T13:44:31.597Z,48.60
2018-03-03T13:46:59.184Z,48.80
2018-03-03T13:49:26.788Z,48.90
2018-03-03T13:51:54.364Z,48.70
2018-03-03T13:54:22.693Z,48.70
2018-03-03T13:56:50.282Z,48.70
2018-03-03T13:59:17.869Z,48.20
2018-03-03T14:01:46.247Z,47.90
2018-03-03T14:04:14.570Z,47.70
2018-03-03T14:06:42.152Z,47.60
2018-03-03T14:09:09.745Z,47.60
2018-03-03T14:11:38.082Z,47.20
2018-03-03T14:14:05.673Z,47.20
2018-03-03T14:16:34.040Z,48.00
2018-03-03T14:19:01.602Z,48.50
2018-03-03T14:21:29.192Z,48.10
2018-03-03T14:23:56.765Z,47.90
2018-03-03T14:26:24.353Z,48.30
2018-03-03T14:28:51.962Z,48.40
2018-03-03T14:31:20.324Z,48.10
2018-03-03T14:33:48.678Z,47.80
2018-03-03T14:36:17.250Z,47.80
2018-03-03T14:38:44.815Z,47.70
2018-03-03T14:41:12.424Z,47.70
2018-03-03T14:43:40.003Z,47.80
2018-03-03T14:46:07.846Z,47.50
2018-03-03T14:48:36.199Z,47.60
2018-03-03T14:51:03.758Z,47.60
2018-03-03T14:53:32.164Z,47.40
2018-03-03T14:56:03.656Z,47.60
2018-03-03T14:58:31.248Z,47.60
2018-03-03T15:00:58.825Z,47.60
2018-03-03T15:03:27.183Z,47.50
2018-03-03T15:05:54.756Z,47.50
2018-03-03T15:08:23.105Z,47.50
2018-03-03T15:10:51.483Z,47.00
2018-03-03T15:13:19.075Z,47.00
2018-03-03T15:15:47.427Z,47.60
2018-03-03T15:18:15.449Z,47.50
2018-03-03T15:20:43.035Z,47.80
2018-03-03T15:23:10.632Z,48.10
2018-03-03T15:25:38.228Z,48.20
2018-03-03T15:28:05.826Z,48.30
2018-03-03T15:30:33.391Z,48.30
2018-03-03T15:33:01.984Z,48.50
2018-03-03T15:35:29.618Z,48.50
2018-03-03T15:37:58.228Z,48.70
2018-03-03T15:40:25.810Z,49.10
2018-03-03T15:42:54.182Z,49.90
2018-03-03T15:45:21.779Z,49.80
2018-03-03T15:47:49.391Z,50.10
2018-03-03T15:50:16.964Z,50.40
2018-03-03T15:52:44.551Z,50.60
2018-03-03T15:55:12.152Z,51.10
2018-03-03T15:57:40.518Z,51.00
2018-03-03T16:00:08.084Z,51.10
2018-03-03T16:02:35.679Z,51.20
2018-03-03T16:05:03.271Z,51.40
2018-03-03T16:07:30.851Z,51.50
2018-03-03T16:09:59.467Z,51.60
2018-03-03T16:12:27.064Z,52.00
2018-03-03T16:14:55.399Z,53.10
2018-03-03T16:17:22.992Z,53.70
2018-03-03T16:19:50.600Z,53.40
2018-03-03T16:22:18.173Z,53.70
2018-03-03T16:24:45.817Z,53.70
2018-03-03T16:27:13.405Z,53.80
2018-03-03T16:29:41.353Z,54.50
2018-03-03T16:32:09.032Z,54.10
2018-03-03T16:34:36.582Z,54.30
2018-03-03T16:37:05.152Z,54.30
2018-03-03T16:39:32.768Z,54.40
2018-03-03T16:42:02.140Z,54.90
2018-03-03T16:44:29.728Z,54.90
2018-03-03T16:46:57.302Z,55.20
2018-03-03T16:49:25.677Z,55.70
2018-03-03T16:51:54.015Z,55.80
2018-03-03T16:54:21.581Z,55.80
2018-03-03T16:56:49.165Z,55.80
2018-03-03T16:59:17.500Z,56.70
2018-03-03T17:01:45.103Z,56.00
2018-03-03T17:04:13.436Z,55.30
2018-03-03T17:06:44.593Z,55.20
2018-03-03T17:09:12.174Z,55.60
2018-03-03T17:11:39.731Z,56.40
2018-03-03T17:14:07.304Z,56.50
2018-03-03T17:16:35.665Z,56.80
2018-03-03T17:19:03.276Z,56.70
2018-03-03T17:21:30.838Z,56.80
2018-03-03T17:23:58.416Z,57.10
2018-03-03T17:26:26.015Z,57.10
2018-03-03T17:28:53.601Z,57.90
2018-03-03T17:31:22.816Z,58.70
2018-03-03T17:33:50.394Z,58.70
2018-03-03T17:36:19.912Z,59.10
2018-03-03T17:38:47.488Z,59.70
2018-03-03T17:41:15.094Z,60.30
2018-03-03T17:43:46.361Z,61.20
2018-03-03T17:46:13.946Z,61.90
2018-03-03T17:48:44.770Z,63.10
2018-03-03T17:51:12.342Z,64.00
2018-03-03T17:53:39.929Z,65.00
2018-03-03T17:56:08.261Z,67.10
2018-03-03T17:58:35.839Z,67.10
2018-03-03T18:01:03.404Z,68.00
2018-03-03T18:03:31.020Z,68.40
2018-03-03T18:05:58.581Z,69.10
2018-03-03T18:08:26.160Z,70.10
2018-03-03T18:10:55.478Z,70.70
2018-03-03T18:13:32.304Z,72.10
2018-03-03T18:16:00.647Z,73.60
2018-03-03T18:18:30.505Z,73.60
2018-03-03T18:20:58.092Z,74.30
2018-03-03T18:23:25.642Z,76.20
2018-03-03T18:25:53.227Z,77.40
2018-03-03T18:28:20.825Z,78.80
2018-03-03T18:30:49.170Z,81.00
2018-03-03T18:33:16.818Z,81.00
2018-03-03T18:35:45.932Z,81.90
2018-03-03T18:38:13.571Z,82.40
2018-03-03T18:40:41.125Z,82.80
2018-03-03T18:43:08.703Z,83.10
2018-03-03T18:45:36.249Z,83.80
2018-03-03T18:48:03.827Z,83.90
2018-03-03T18:50:31.435Z,84.20
2018-03-03T18:52:59.046Z,84.30
2018-03-03T18:55:26.620Z,84.60
2018-03-03T18:57:54.182Z,85.80
2018-03-03T19:00:21.788Z,86.70
2018-03-03T19:02:49.379Z,88.00
2018-03-03T19:05:16.967Z,89.80
2018-03-03T19:07:44.570Z,90.40
2018-03-03T19:10:12.139Z,90.80
2018-03-03T19:12:39.728Z,91.70
2018-03-03T19:15:08.310Z,92.00
2018-03-03T19:17:35.910Z,93.00
2018-03-03T19:20:04.260Z,94.20
2018-03-03T19:22:31.842Z,94.10
2018-03-03T19:25:00.221Z,95.70
2018-03-03T19:27:28.559Z,96.40
2018-03-03T19:29:56.143Z,96.40
2018-03-03T19:32:23.748Z,96.60
2018-03-03T19:34:51.363Z,96.70
2018-03-03T19:37:18.931Z,98.10
2018-03-03T19:39:46.505Z,99.30
2018-03-03T19:42:14.120Z,99.90
2018-03-03T19:44:41.711Z,99.90
2018-03-03T19:47:10.075Z,99.90
2018-03-03T19:49:37.660Z,99.90
2018-03-03T19:52:05.266Z,99.90
2018-03-03T19:54:33.642Z,99.90
2018-03-03T19:57:01.254Z,99.90
2018-03-03T19:59:28.864Z,99.90
2018-03-03T20:01:56.436Z,99.90
2018-03-03T20:04:24.035Z,99.90
2018-03-03T20:06:52.371Z,99.90
2018-03-03T20:09:19.980Z,99.90
2018-03-03T20:11:47.582Z,99.90
2018-03-03T20:14:15.154Z,99.90
2018-03-03T20:16:43.543Z,99.90
2018-03-03T20:19:11.129Z,99.90
2018-03-03T20:21:39.462Z,99.90
2018-03-03T20:24:07.071Z,99.90
2018-03-03T20:26:35.443Z,99.90
2018-03-03T20:29:03.031Z,99.90
2018-03-03T20:31:30.609Z,99.90
2018-03-03T20:33:59.121Z,99.90
2018-03-03T20:36:27.503Z,99.90
2018-03-03T20:38:55.094Z,99.90
2018-03-03T20:41:22.707Z,99.90
2018-03-03T20:43:51.088Z,99.90
2018-03-03T20:46:18.666Z,99.90
2018-03-03T20:48:46.287Z,99.90
2018-03-03T20:51:14.125Z,99.90
2018-03-03T20:53:42.451Z,99.90
2018-03-03T20:56:10.034Z,99.90
2018-03-03T20:58:37.603Z,99.90
2018-03-03T21:01:05.229Z,99.90
2018-03-03T21:03:32.791Z,99.90
2018-03-03T21:06:00.357Z,99.90
2018-03-03T21:08:28.941Z,99.90
2018-03-03T21:10:57.267Z,99.90
2018-03-03T21:13:25.635Z,99.90
2018-03-03T21:15:53.967Z,99.90
2018-03-03T21:18:21.579Z,99.90
2018-03-03T21:20:50.850Z,99.90
2018-03-03T21:23:18.463Z,99.90
2018-03-03T21:25:46.020Z,99.90
2018-03-03T21:28:13.630Z,99.90
2018-03-03T21:30:41.207Z,99.90
2018-03-03T21:33:09.548Z,99.90
2018-03-03T21:35:37.156Z,99.90
2018-03-03T21:38:05.487Z,99.90
2018-03-03T21:40:33.067Z,99.90
2018-03-03T21:43:00.664Z,99.90
2018-03-03T21:45:28.254Z,99.90
2018-03-03T21:47:55.831Z,99.90
2018-03-03T21:50:23.382Z,99.90
2018-03-03T21:52:50.967Z,99.90
2018-03-03T21:55:18.540Z,99.90
2018-03-03T21:57:46.157Z,99.90
2018-03-03T22:00:13.709Z,99.90
2018-03-03T22:02:41.275Z,99.90
2018-03-03T22:05:08.868Z,99.90
2018-03-03T22:07:36.440Z,99.90
2018-03-03T22:10:04.065Z,99.90
2018-03-03T22:12:31.640Z,99.90
2018-03-03T22:14:59.269Z,99.90
2018-03-03T22:17:26.871Z,99.90
2018-03-03T22:19:54.453Z,99.90
2018-03-03T22:22:22.806Z,99.90
2018-03-03T22:24:50.381Z,99.90
2018-03-03T22:27:18.019Z,99.90
2018-03-03T22:29:45.578Z,99.90
2018-03-03T22:32:13.200Z,99.90
2018-03-03T22:34:40.781Z,99.90
2018-03-03T22:37:08.362Z,99.90
2018-03-03T22:39:35.951Z,99.90
2018-03-03T22:42:04.274Z,99.90
2018-03-03T22:44:31.905Z,99.90
2018-03-03T22:46:59.463Z,99.90
2018-03-03T22:49:27.844Z,99.90
2018-03-03T22:51:56.171Z,99.90
2018-03-03T22:54:23.780Z,99.90
2018-03-03T22:56:52.101Z,99.90
2018-03-03T22:59:19.688Z,99.90
2018-03-03T23:01:47.276Z,99.90
2018-03-03T23:04:15.651Z,99.90
2018-03-03T23:06:43.300Z,99.90
2018-03-03T23:09:11.662Z,99.90
2018-03-03T23:11:39.255Z,99.90
2018-03-03T23:14:07.656Z,99.90
2018-03-03T23:16:35.247Z,99.90
2018-03-03T23:19:02.841Z,99.90
2018-03-03T23:21:31.193Z,99.90
2018-03-03T23:23:58.778Z,99.90
2018-03-03T23:26:27.154Z,99.90
2018-03-03T23:28:54.748Z,99.90
2018-03-03T23:31:22.407Z,99.90
2018-03-03T23:33:49.993Z,99.90
2018-03-03T23:36:17.576Z,99.90
2018-03-03T23:38:45.180Z,99.90
2018-03-03T23:41:12.763Z,99.90
2018-03-03T23:43:40.355Z,99.90
2018-03-03T23:46:07.926Z,99.90
2018-03-03T23:48:35.533Z,99.90
2018-03-03T23:51:03.108Z,99.90
2018-03-03T23:53:30.698Z,99.90
2018-03-03T23:55:58.278Z,99.90
2018-03-03T23:58:26.612Z,99.90
